This is the latest recevied weather packets stored in our database for station/object DJ4RO-13. If no packets are shown the sender has not sent any weather packets the latest 10 day(s).
| Time | Temp. | Humidity | Pressure | Rain* | Wind** | Luminosity | Snow |
|---|---|---|---|---|---|---|---|
| 1777124685 | 16.11° C | 51% | 1017.9 hPa | 0 mm | - | 411 W/m² | - |
| 1777124365 | 16.11° C | 52% | 1017.7 hPa | 0 mm | - | 412 W/m² | - |
| 1777124046 | 16.11° C | 51% | 1017.8 hPa | 0 mm | - | 423 W/m² | - |
| 1777123725 | 16.67° C | 49% | 1017.9 hPa | 0 mm | - | 435 W/m² | - |
| 1777123405 | 16.11° C | 52% | 1017.9 hPa | 0 mm | - | 441 W/m² | - |
| 1777123085 | 16.67° C | 51% | 1018.1 hPa | 0 mm | - | 449 W/m² | - |
| 1777122765 | 16.11° C | 51% | 1017.9 hPa | 0 mm | - | 460 W/m² | - |
| 1777122446 | 16.11° C | 50% | 1018.2 hPa | 0 mm | - | 466 W/m² | - |
| 1777122125 | 16.11° C | 52% | 1018.1 hPa | 0 mm | - | 477 W/m² | - |
| 1777121806 | 15.56° C | 50% | 1018.2 hPa | 0 mm | - | 482 W/m² | - |
| 1777121485 | 16.11° C | 50% | 1018.3 hPa | 0 mm | - | 484 W/m² | - |
| 1777121165 | 16.11° C | 51% | 1018 hPa | 0 mm | - | 494 W/m² | - |
| 1777120845 | 16.67° C | 50% | 1018.2 hPa | 0 mm | - | 507 W/m² | - |
| 1777120525 | 15.56° C | 49% | 1018.4 hPa | 0 mm | - | 513 W/m² | - |
| 1777120205 | 15.56° C | 51% | 1018.4 hPa | 0 mm | - | 515 W/m² | - |
| 1777119885 | 15° C | 53% | 1018.2 hPa | 0 mm | - | 516 W/m² | - |
| 1777119565 | 15° C | 52% | 1018.3 hPa | 0 mm | - | 524 W/m² | - |
| 1777119245 | 16.11° C | 50% | 1018.5 hPa | 0 mm | - | 528 W/m² | - |
| 1777118925 | 15.56° C | 54% | 1018.4 hPa | 0 mm | - | 532 W/m² | - |
| 1777118605 | 15° C | 52% | 1018.6 hPa | 0 mm | - | 538 W/m² | - |
| 1777118285 | 15° C | 52% | 1018.4 hPa | 0 mm | - | 545 W/m² | - |
| 1777117965 | 15.56° C | 52% | 1018.7 hPa | 0 mm | - | 546 W/m² | - |
| 1777117645 | 15° C | 53% | 1018.6 hPa | 0 mm | - | 548 W/m² | - |
| 1777117325 | 15° C | 54% | 1018.5 hPa | 0 mm | - | 556 W/m² | - |
| 1777117005 | 15° C | 53% | 1018.7 hPa | 0 mm | - | 559 W/m² | - |
* Rain latest hour (hover to see other rain measurements)
** Current wind speed in m/s (hover to see current wind gust speed)